createdAt,value
2023-05-06T00:01:16.024Z,13.83
2023-05-06T00:03:48.827Z,13.78
2023-05-06T00:06:19.034Z,13.76
2023-05-06T00:08:49.610Z,13.65
2023-05-06T00:11:19.651Z,13.62
2023-05-06T00:13:49.730Z,13.52
2023-05-06T00:16:21.868Z,13.56
2023-05-06T00:18:54.419Z,13.54
2023-05-06T00:21:27.363Z,13.54
2023-05-06T00:23:57.510Z,13.34
2023-05-06T00:26:27.512Z,13.49
2023-05-06T00:28:57.593Z,13.46
2023-05-06T00:31:27.684Z,13.43
2023-05-06T00:34:00.631Z,13.44
2023-05-06T00:36:30.619Z,13.45
2023-05-06T00:39:00.964Z,13.48
2023-05-06T00:41:36.814Z,13.48
2023-05-06T00:44:06.993Z,13.49
2023-05-06T00:46:37.558Z,13.51
2023-05-06T00:49:10.129Z,13.52
2023-05-06T00:51:40.422Z,13.53
2023-05-06T00:54:13.294Z,13.51
2023-05-06T00:56:47.058Z,13.46
2023-05-06T00:59:17.635Z,13.52
2023-05-06T01:01:49.628Z,13.55
2023-05-06T01:04:22.734Z,13.53
2023-05-06T01:07:04.485Z,13.54
2023-05-06T01:09:50.406Z,13.49
2023-05-06T01:12:27.538Z,13.46
2023-05-06T01:15:08.834Z,13.33
2023-05-06T01:17:46.756Z,13.37
2023-05-06T01:20:21.583Z,13.32
2023-05-06T01:22:53.131Z,13.35
2023-05-06T01:25:30.348Z,13.42
2023-05-06T01:28:11.955Z,13.39
2023-05-06T01:31:01.314Z,13.38
2023-05-06T01:33:40.033Z,13.37
2023-05-06T01:36:18.880Z,13.37
2023-05-06T01:38:55.654Z,13.35
2023-05-06T01:41:29.823Z,13.25
2023-05-06T01:44:00.649Z,13.11
2023-05-06T01:46:33.420Z,12.93
2023-05-06T01:49:08.300Z,12.77
2023-05-06T01:51:38.397Z,12.65
2023-05-06T01:54:09.499Z,12.53
2023-05-06T01:56:46.723Z,12.45
2023-05-06T01:59:18.312Z,12.38
2023-05-06T02:01:48.414Z,12.33
2023-05-06T02:04:18.545Z,12.23
2023-05-06T02:06:48.768Z,12.25
2023-05-06T02:09:20.785Z,12.23
2023-05-06T02:11:59.714Z,12.19
2023-05-06T02:14:32.038Z,12.19
2023-05-06T02:17:06.597Z,12.02
2023-05-06T02:19:39.564Z,12.15
2023-05-06T02:22:12.101Z,12.15
2023-05-06T02:24:53.060Z,12.17
2023-05-06T02:27:25.894Z,12.14
2023-05-06T02:29:59.696Z,12.11
2023-05-06T02:32:32.541Z,12.07
2023-05-06T02:35:03.210Z,12.03
2023-05-06T02:37:33.464Z,12.00
2023-05-06T02:40:07.877Z,12.00
2023-05-06T02:42:40.547Z,12.01
2023-05-06T02:45:12.205Z,12.04
2023-05-06T02:47:42.518Z,12.23
2023-05-06T02:50:14.175Z,12.27
2023-05-06T02:52:46.834Z,12.43
2023-05-06T02:55:21.406Z,12.46
2023-05-06T02:57:53.960Z,12.47
2023-05-06T03:00:24.287Z,12.43
2023-05-06T03:02:55.132Z,12.36
2023-05-06T03:05:26.842Z,12.30
2023-05-06T03:07:57.193Z,12.21
2023-05-06T03:10:33.052Z,12.09
2023-05-06T03:13:06.755Z,12.05
2023-05-06T03:15:36.890Z,11.99
2023-05-06T03:18:08.870Z,11.97
2023-05-06T03:20:46.531Z,11.96
2023-05-06T03:23:16.531Z,11.94
2023-05-06T03:25:46.849Z,11.95
2023-05-06T03:28:21.306Z,12.00
2023-05-06T03:30:52.771Z,12.04
2023-05-06T03:33:30.108Z,12.09
2023-05-06T03:36:00.285Z,12.16
2023-05-06T03:38:33.008Z,12.23
2023-05-06T03:41:06.194Z,12.31
2023-05-06T03:43:45.964Z,12.44
2023-05-06T03:46:17.121Z,12.43
2023-05-06T03:48:47.722Z,12.47
2023-05-06T03:51:20.927Z,12.51
2023-05-06T03:53:52.987Z,12.54
2023-05-06T03:56:25.685Z,12.53
2023-05-06T03:59:03.863Z,12.51
2023-05-06T04:01:37.807Z,12.49
2023-05-06T04:04:09.507Z,12.46
2023-05-06T04:06:42.094Z,12.43
2023-05-06T04:09:13.302Z,12.45
2023-05-06T04:11:43.756Z,12.40
2023-05-06T04:14:19.577Z,12.40
2023-05-06T04:16:50.035Z,12.42
2023-05-06T04:19:20.214Z,12.46
2023-05-06T04:21:50.788Z,12.48
2023-05-06T04:24:21.812Z,12.49
2023-05-06T04:26:55.782Z,12.50
2023-05-06T04:29:29.545Z,12.50
2023-05-06T04:32:11.894Z,12.50
2023-05-06T04:34:47.511Z,12.44
2023-05-06T04:37:19.179Z,12.44
2023-05-06T04:39:53.159Z,12.41
2023-05-06T04:42:23.536Z,12.44
2023-05-06T04:45:08.367Z,12.49
2023-05-06T04:47:40.626Z,12.48
2023-05-06T04:50:13.816Z,12.46
2023-05-06T04:52:45.213Z,12.36
2023-05-06T04:55:17.880Z,12.37
2023-05-06T04:57:51.822Z,12.39
2023-05-06T05:00:26.614Z,12.39
2023-05-06T05:02:57.160Z,12.36
2023-05-06T05:05:30.112Z,12.41
2023-05-06T05:08:01.040Z,12.56
2023-05-06T05:10:33.557Z,12.64
2023-05-06T05:13:03.833Z,13.26
2023-05-06T05:15:36.750Z,14.52
2023-05-06T05:18:06.963Z,15.42
2023-05-06T05:20:38.026Z,16.19
2023-05-06T05:23:11.915Z,17.14
2023-05-06T05:25:43.616Z,17.99
2023-05-06T05:28:14.074Z,18.72
2023-05-06T05:30:54.516Z,19.00
2023-05-06T05:33:25.172Z,18.62
2023-05-06T05:36:04.918Z,17.45
2023-05-06T05:38:39.029Z,16.39
2023-05-06T05:41:09.394Z,15.53
2023-05-06T05:43:39.812Z,15.10
2023-05-06T05:46:12.615Z,14.84
2023-05-06T05:48:46.940Z,14.66
2023-05-06T05:51:17.370Z,14.46
2023-05-06T05:53:48.188Z,14.24
2023-05-06T05:56:19.754Z,14.06
2023-05-06T05:58:50.878Z,14.01
2023-05-06T06:01:24.620Z,13.92
2023-05-06T06:03:56.177Z,14.01
2023-05-06T06:06:26.558Z,14.02
2023-05-06T06:08:56.696Z,14.21
2023-05-06T06:11:29.415Z,14.23
2023-05-06T06:14:00.211Z,14.27
2023-05-06T06:16:33.189Z,14.29
2023-05-06T06:19:03.434Z,14.29
2023-05-06T06:21:34.046Z,14.32
2023-05-06T06:24:07.182Z,14.52
2023-05-06T06:26:41.345Z,14.73
2023-05-06T06:29:11.533Z,14.70
2023-05-06T06:31:44.282Z,14.62
2023-05-06T06:34:14.445Z,14.55
2023-05-06T06:36:46.001Z,14.53
2023-05-06T06:39:16.588Z,14.49
2023-05-06T06:41:48.812Z,14.47
2023-05-06T06:44:22.034Z,14.69
2023-05-06T06:46:54.544Z,14.87
2023-05-06T06:49:24.922Z,15.14
2023-05-06T06:51:56.901Z,15.25
2023-05-06T06:54:33.641Z,15.31
2023-05-06T06:57:04.165Z,15.34
2023-05-06T06:59:36.732Z,15.36
2023-05-06T07:02:09.889Z,15.39
2023-05-06T07:04:41.134Z,15.51
2023-05-06T07:07:11.221Z,15.75
2023-05-06T07:09:41.788Z,15.93
2023-05-06T07:12:12.357Z,15.86
2023-05-06T07:14:44.906Z,15.63
2023-05-06T07:17:17.614Z,15.41
2023-05-06T07:19:47.757Z,15.24
2023-05-06T07:22:19.619Z,15.22
2023-05-06T07:24:53.350Z,15.19
2023-05-06T07:27:27.553Z,15.19
2023-05-06T07:29:59.914Z,15.13
2023-05-06T07:32:33.120Z,15.47
2023-05-06T07:35:18.204Z,15.74
2023-05-06T07:37:49.112Z,15.95
2023-05-06T07:40:19.381Z,16.00
2023-05-06T07:42:51.792Z,16.02
2023-05-06T07:45:23.620Z,15.68
2023-05-06T07:47:56.702Z,15.36
2023-05-06T07:50:27.151Z,15.13
2023-05-06T07:52:57.595Z,15.01
2023-05-06T07:55:28.123Z,15.06
2023-05-06T07:57:58.422Z,15.44
2023-05-06T08:00:28.543Z,15.84
2023-05-06T08:03:01.425Z,16.04
2023-05-06T08:05:31.867Z,16.05
2023-05-06T08:08:02.009Z,15.82
2023-05-06T08:10:32.522Z,15.77
2023-05-06T08:13:11.848Z,15.85
2023-05-06T08:15:43.287Z,16.20
2023-05-06T08:18:22.324Z,16.47
2023-05-06T08:20:53.249Z,16.67
2023-05-06T08:23:26.406Z,16.66
2023-05-06T08:25:56.665Z,16.58
2023-05-06T08:28:26.738Z,16.44
2023-05-06T08:30:56.755Z,16.35
2023-05-06T08:33:32.904Z,16.36
2023-05-06T08:36:02.953Z,16.40
2023-05-06T08:38:32.991Z,16.44
2023-05-06T08:41:10.864Z,16.74
2023-05-06T08:44:01.484Z,16.98
2023-05-06T08:46:35.045Z,17.00
2023-05-06T08:49:09.865Z,16.98
2023-05-06T08:51:41.346Z,17.06
2023-05-06T08:54:13.136Z,17.46
2023-05-06T08:56:53.393Z,17.68
2023-05-06T08:59:31.119Z,17.68
2023-05-06T09:02:02.648Z,17.43
2023-05-06T09:04:35.350Z,17.28
2023-05-06T09:07:05.544Z,17.14
2023-05-06T09:09:35.616Z,17.41
2023-05-06T09:12:07.247Z,17.55
2023-05-06T09:14:37.317Z,17.52
2023-05-06T09:17:08.374Z,17.28
2023-05-06T09:19:49.439Z,17.17
2023-05-06T09:22:27.160Z,16.90
2023-05-06T09:24:59.349Z,16.91
2023-05-06T09:27:31.747Z,16.95
2023-05-06T09:30:06.866Z,17.01
2023-05-06T09:32:40.484Z,17.34
2023-05-06T09:35:14.527Z,17.81
2023-05-06T09:37:45.075Z,17.73
2023-05-06T09:40:17.013Z,17.63
2023-05-06T09:42:50.658Z,17.54
2023-05-06T09:45:20.691Z,17.50
2023-05-06T09:47:53.975Z,17.60
2023-05-06T09:50:27.986Z,17.38
2023-05-06T09:52:59.925Z,17.22
2023-05-06T09:55:30.946Z,17.40
2023-05-06T09:58:02.401Z,17.24
2023-05-06T10:00:34.303Z,17.36
2023-05-06T10:03:08.874Z,17.67
2023-05-06T10:05:43.846Z,17.95
2023-05-06T10:08:18.762Z,18.33
2023-05-06T10:10:52.337Z,18.32
2023-05-06T10:13:24.828Z,18.27
2023-05-06T10:15:55.779Z,18.26
2023-05-06T10:18:29.431Z,18.09
2023-05-06T10:21:03.524Z,18.17
2023-05-06T10:23:40.513Z,18.11
2023-05-06T10:26:14.600Z,17.94
2023-05-06T10:28:46.928Z,17.82
2023-05-06T10:31:17.161Z,18.34
2023-05-06T10:33:51.684Z,18.96
2023-05-06T10:36:28.823Z,19.16
2023-05-06T10:39:00.949Z,19.11
2023-05-06T10:41:32.033Z,18.91
2023-05-06T10:44:02.102Z,18.72
2023-05-06T10:46:58.930Z,18.85
2023-05-06T10:49:29.500Z,18.63
2023-05-06T10:52:18.162Z,18.53
2023-05-06T10:54:53.228Z,18.71
2023-05-06T10:57:27.216Z,18.75
2023-05-06T10:59:59.932Z,18.79
2023-05-06T11:02:33.498Z,18.93
2023-05-06T11:05:04.962Z,18.67
2023-05-06T11:07:39.695Z,18.32
2023-05-06T11:10:13.809Z,18.74
2023-05-06T11:12:51.722Z,19.05
2023-05-06T11:15:26.935Z,19.15
2023-05-06T11:17:58.425Z,19.22
2023-05-06T11:20:30.908Z,19.30
2023-05-06T11:23:04.613Z,19.19
2023-05-06T11:25:51.784Z,19.03
2023-05-06T11:28:21.831Z,18.89
2023-05-06T11:30:58.523Z,19.03
2023-05-06T11:33:34.623Z,19.47
2023-05-06T11:36:06.989Z,19.77
2023-05-06T11:38:49.835Z,19.79
2023-05-06T11:41:23.618Z,19.65
2023-05-06T11:43:55.346Z,19.29
2023-05-06T11:46:36.008Z,19.08
2023-05-06T11:49:08.813Z,19.09
2023-05-06T11:51:39.219Z,19.09
2023-05-06T11:54:20.507Z,19.10
2023-05-06T11:56:52.853Z,19.06
2023-05-06T11:59:31.138Z,18.78
2023-05-06T12:02:10.878Z,18.73
2023-05-06T12:04:44.652Z,18.94
2023-05-06T12:07:17.601Z,19.30
2023-05-06T12:09:52.484Z,19.48
2023-05-06T12:12:27.630Z,19.49
2023-05-06T12:14:57.912Z,19.24
2023-05-06T12:17:28.134Z,18.96
2023-05-06T12:19:58.986Z,18.57
2023-05-06T12:22:31.553Z,18.33
2023-05-06T12:25:31.133Z,18.59
2023-05-06T12:28:04.353Z,18.30
2023-05-06T12:30:34.883Z,18.47
2023-05-06T12:33:15.590Z,18.49
2023-05-06T12:35:45.669Z,18.46
2023-05-06T12:38:17.194Z,18.50
2023-05-06T12:40:57.134Z,18.55
2023-05-06T12:43:32.622Z,18.78
2023-05-06T12:46:10.089Z,19.00
2023-05-06T12:48:42.625Z,19.20
2023-05-06T12:51:22.296Z,19.32
2023-05-06T12:53:52.489Z,19.18
2023-05-06T12:56:34.652Z,19.44
2023-05-06T12:59:09.724Z,19.38
2023-05-06T13:01:42.403Z,19.06
2023-05-06T13:04:15.471Z,18.91
2023-05-06T13:06:47.176Z,19.16
2023-05-06T13:09:21.463Z,19.55
2023-05-06T13:11:57.968Z,19.66
2023-05-06T13:14:46.361Z,19.08
2023-05-06T13:17:16.738Z,18.86
2023-05-06T13:19:47.203Z,18.85
2023-05-06T13:22:17.296Z,19.03
2023-05-06T13:24:47.359Z,19.13
2023-05-06T13:27:22.042Z,19.21
2023-05-06T13:29:54.108Z,19.22
2023-05-06T13:32:24.273Z,19.11
2023-05-06T13:34:56.556Z,19.25
2023-05-06T13:37:27.395Z,19.43
2023-05-06T13:39:57.857Z,19.55
2023-05-06T13:42:30.582Z,19.96
2023-05-06T13:45:01.134Z,20.00
2023-05-06T13:47:31.448Z,20.30
2023-05-06T13:50:03.823Z,20.57
2023-05-06T13:52:33.881Z,20.48
2023-05-06T13:55:04.193Z,20.33
2023-05-06T13:57:36.818Z,20.22
2023-05-06T14:00:11.087Z,19.89
2023-05-06T14:02:43.430Z,19.49
2023-05-06T14:05:15.886Z,19.29
2023-05-06T14:07:46.039Z,19.07
2023-05-06T14:10:17.072Z,19.06
2023-05-06T14:12:50.061Z,19.02
2023-05-06T14:15:21.292Z,18.86
2023-05-06T14:17:51.378Z,18.92
2023-05-06T14:20:23.278Z,19.28
2023-05-06T14:22:53.360Z,19.37
2023-05-06T14:25:27.030Z,19.18
2023-05-06T14:28:00.293Z,18.90
2023-05-06T14:30:31.109Z,18.89
2023-05-06T14:33:01.332Z,19.03
2023-05-06T14:35:32.187Z,19.29
2023-05-06T14:38:02.259Z,19.62
2023-05-06T14:40:36.140Z,19.82
2023-05-06T14:43:09.704Z,19.62
2023-05-06T14:45:42.372Z,19.66
2023-05-06T14:48:16.210Z,19.95
2023-05-06T14:50:48.293Z,20.18
2023-05-06T14:53:20.633Z,20.21
2023-05-06T14:55:53.099Z,20.19
2023-05-06T14:58:28.337Z,20.26
2023-05-06T15:00:58.343Z,20.08
2023-05-06T15:03:29.191Z,19.99
2023-05-06T15:06:09.933Z,19.79
2023-05-06T15:08:40.132Z,19.75
2023-05-06T15:11:12.598Z,19.57
2023-05-06T15:13:48.836Z,19.27
2023-05-06T15:16:18.801Z,19.06
2023-05-06T15:18:49.219Z,18.93
2023-05-06T15:21:22.207Z,18.95
2023-05-06T15:23:52.658Z,19.00
2023-05-06T15:26:24.271Z,18.94
2023-05-06T15:28:57.218Z,18.87
2023-05-06T15:31:27.534Z,18.83
2023-05-06T15:33:59.585Z,18.86
2023-05-06T15:36:31.306Z,18.86
2023-05-06T15:39:02.829Z,18.85
2023-05-06T15:41:35.109Z,18.77
2023-05-06T15:44:11.414Z,18.70
2023-05-06T15:46:42.222Z,18.54
2023-05-06T15:52:01.304Z,18.39
2023-05-06T15:54:32.185Z,18.28
2023-05-06T15:57:07.095Z,18.38
2023-05-06T15:59:46.301Z,18.30
2023-05-06T16:04:51.711Z,18.39
2023-05-06T16:07:22.191Z,18.51
2023-05-06T16:09:52.941Z,18.72
2023-05-06T16:12:23.139Z,18.96
2023-05-06T16:15:00.598Z,18.90
2023-05-06T16:17:30.783Z,18.80
2023-05-06T16:20:00.978Z,18.98
2023-05-06T16:22:30.976Z,18.93
2023-05-06T16:25:01.045Z,18.83
2023-05-06T16:27:31.239Z,18.70
2023-05-06T16:30:04.006Z,18.70
2023-05-06T16:32:35.369Z,18.57
2023-05-06T16:35:14.456Z,18.39
2023-05-06T16:37:46.511Z,18.26
2023-05-06T16:40:26.467Z,18.04
2023-05-06T16:42:56.635Z,18.07
2023-05-06T16:45:31.035Z,18.06
2023-05-06T16:48:01.313Z,17.98
2023-05-06T16:50:32.327Z,17.89
2023-05-06T16:53:02.445Z,17.82
2023-05-06T16:55:32.627Z,17.70
2023-05-06T16:58:03.874Z,17.59
2023-05-06T17:00:36.532Z,17.49
2023-05-06T17:03:07.329Z,17.40
2023-05-06T17:05:37.455Z,17.38
2023-05-06T17:08:12.063Z,17.36
2023-05-06T17:10:43.575Z,17.40
2023-05-06T17:13:28.190Z,17.33
2023-05-06T17:16:01.063Z,17.11
2023-05-06T17:18:53.846Z,16.97
2023-05-06T17:24:08.120Z,16.74
2023-05-06T17:26:41.923Z,16.65
2023-05-06T17:29:15.368Z,16.44
2023-05-06T17:31:48.100Z,16.20
2023-05-06T17:34:18.560Z,16.04
2023-05-06T17:36:48.567Z,15.95
2023-05-06T17:39:20.656Z,15.78
2023-05-06T17:41:50.806Z,15.67
2023-05-06T17:44:20.773Z,15.50
2023-05-06T17:46:56.382Z,15.40
2023-05-06T17:49:27.333Z,15.23
2023-05-06T17:51:59.455Z,15.10
2023-05-06T17:54:32.626Z,14.91
2023-05-06T17:57:03.520Z,14.84
2023-05-06T17:59:33.580Z,14.73
2023-05-06T18:02:14.156Z,14.66
2023-05-06T18:04:48.226Z,14.53
2023-05-06T18:07:18.302Z,14.36
2023-05-06T18:09:52.124Z,14.20
2023-05-06T18:12:22.772Z,14.09
2023-05-06T18:14:53.452Z,14.07
2023-05-06T18:17:26.343Z,13.96
2023-05-06T18:19:56.442Z,13.88
2023-05-06T18:22:26.872Z,13.80
2023-05-06T18:24:56.919Z,13.71
2023-05-06T18:27:29.798Z,13.62
2023-05-06T18:30:00.036Z,13.54
2023-05-06T18:32:32.863Z,13.46
2023-05-06T18:35:05.591Z,13.45
2023-05-06T18:37:45.785Z,13.42
2023-05-06T18:40:17.998Z,13.28
2023-05-06T18:42:51.462Z,13.22
2023-05-06T18:45:24.619Z,13.19
2023-05-06T18:47:59.079Z,13.20
2023-05-06T18:50:31.483Z,13.11
2023-05-06T18:53:01.505Z,13.07
2023-05-06T18:55:40.240Z,13.05
2023-05-06T18:58:12.629Z,13.07
2023-05-06T19:00:42.663Z,13.00
2023-05-06T19:03:27.672Z,12.98
2023-05-06T19:05:57.826Z,12.80
2023-05-06T19:08:29.804Z,12.66
2023-05-06T19:11:02.292Z,12.66
2023-05-06T19:13:32.460Z,12.49
2023-05-06T19:16:02.512Z,12.35
2023-05-06T19:18:38.048Z,12.26
2023-05-06T19:21:12.119Z,12.20
2023-05-06T19:23:42.336Z,12.14
2023-05-06T19:26:15.374Z,12.08
2023-05-06T19:28:45.883Z,12.10
2023-05-06T19:31:16.544Z,12.09
2023-05-06T19:33:49.301Z,12.04
2023-05-06T19:36:19.512Z,11.98
2023-05-06T19:38:50.651Z,11.93
2023-05-06T19:41:21.441Z,11.87
2023-05-06T19:43:55.430Z,11.87
2023-05-06T19:46:27.006Z,11.93
2023-05-06T19:49:01.043Z,12.07
2023-05-06T19:51:31.450Z,11.97
2023-05-06T19:54:01.552Z,11.88
2023-05-06T19:56:34.479Z,11.88
2023-05-06T19:59:04.460Z,11.82
2023-05-06T20:01:34.451Z,11.68
2023-05-06T20:04:07.563Z,11.58
2023-05-06T20:06:37.686Z,11.59
2023-05-06T20:09:10.478Z,11.64
2023-05-06T20:11:40.577Z,11.68
2023-05-06T20:14:13.791Z,11.69
2023-05-06T20:16:44.601Z,11.76
2023-05-06T20:19:17.754Z,11.75
2023-05-06T20:21:48.033Z,11.72
2023-05-06T20:24:18.413Z,11.59
2023-05-06T20:26:50.908Z,11.50
2023-05-06T20:29:21.578Z,11.40
2023-05-06T20:31:54.372Z,11.31
2023-05-06T20:34:27.476Z,11.23
2023-05-06T20:36:57.496Z,11.17
2023-05-06T20:39:30.000Z,11.25
2023-05-06T20:42:00.183Z,11.25
2023-05-06T20:44:31.094Z,11.19
2023-05-06T20:47:02.268Z,11.17
2023-05-06T20:49:42.443Z,11.22
2023-05-06T20:52:14.827Z,11.29
2023-05-06T20:54:47.285Z,11.36
2023-05-06T20:57:19.238Z,11.39
2023-05-06T20:59:49.732Z,11.35
2023-05-06T21:02:22.747Z,11.31
2023-05-06T21:04:57.507Z,11.26
2023-05-06T21:07:31.076Z,11.29
2023-05-06T21:10:01.457Z,11.36
2023-05-06T21:12:31.613Z,11.39
2023-05-06T21:15:03.773Z,11.39
2023-05-06T21:17:40.068Z,11.36
2023-05-06T21:20:16.989Z,11.37
2023-05-06T21:22:48.708Z,11.35
2023-05-06T21:25:29.174Z,11.32
2023-05-06T21:28:03.469Z,11.28
2023-05-06T21:30:33.641Z,11.29
2023-05-06T21:33:05.209Z,11.34
2023-05-06T21:35:55.993Z,11.35
2023-05-06T21:38:28.056Z,11.38
2023-05-06T21:40:58.124Z,11.30
2023-05-06T21:43:28.188Z,11.29
2023-05-06T21:45:58.558Z,11.25
2023-05-06T21:48:35.361Z,11.24
2023-05-06T21:51:18.858Z,11.13
2023-05-06T21:53:53.833Z,11.19
2023-05-06T21:56:24.489Z,11.16
2023-05-06T21:58:59.474Z,11.17
2023-05-06T22:01:29.735Z,11.18
2023-05-06T22:04:00.619Z,11.14
2023-05-06T22:06:33.727Z,11.16
2023-05-06T22:09:04.602Z,11.18
2023-05-06T22:11:39.006Z,11.15
2023-05-06T22:14:10.444Z,11.11
2023-05-06T22:16:41.713Z,11.06
2023-05-06T22:19:12.481Z,11.07
2023-05-06T22:21:46.495Z,11.04
2023-05-06T22:24:17.924Z,11.06
2023-05-06T22:26:48.231Z,11.11
2023-05-06T22:29:20.563Z,11.16
2023-05-06T22:31:51.373Z,11.20
2023-05-06T22:34:22.594Z,11.15
2023-05-06T22:36:56.993Z,11.08
2023-05-06T22:39:30.581Z,10.96
2023-05-06T22:42:00.702Z,10.94
2023-05-06T22:44:30.926Z,10.94
2023-05-06T22:47:00.974Z,10.69
2023-05-06T22:49:31.077Z,10.87
2023-05-06T22:52:03.787Z,10.88
2023-05-06T22:54:33.862Z,10.93
2023-05-06T22:57:03.991Z,10.97
2023-05-06T22:59:34.617Z,10.99
2023-05-06T23:02:05.958Z,10.94
2023-05-06T23:04:36.082Z,10.89
2023-05-06T23:07:09.503Z,10.94
2023-05-06T23:09:39.647Z,10.99
2023-05-06T23:12:10.162Z,11.01
2023-05-06T23:14:40.347Z,10.97
2023-05-06T23:17:12.905Z,10.93
2023-05-06T23:19:44.120Z,10.83
2023-05-06T23:22:17.199Z,10.79
2023-05-06T23:24:47.725Z,10.86
2023-05-06T23:27:18.731Z,10.93
2023-05-06T23:29:52.632Z,10.87
2023-05-06T23:32:22.594Z,10.86
2023-05-06T23:34:54.740Z,10.79
2023-05-06T23:37:27.812Z,10.82
2023-05-06T23:40:02.134Z,10.80
2023-05-06T23:42:33.599Z,10.85
2023-05-06T23:45:03.516Z,10.90
2023-05-06T23:47:35.014Z,10.81
2023-05-06T23:50:05.124Z,10.74
2023-05-06T23:52:41.282Z,10.66
2023-05-06T23:55:12.588Z,10.68
2023-05-06T23:57:42.841Z,10.69
